Darrouzett, TX

5:34 AM CDT on August 28, 2014 (GMT -0500)
Perryton Ochiltree County | Change Station
CLOSE
Current Station
Airport
Location: Perryton,
Elevation: 2917 ft
Nearby Weather Stations

Elev 2917 ft 36.41 °N, 100.75 °W | Updated 19 minutes ago

Clear
Clear
69 °F
Feels Like 69 °F
N
10
Wind Variable Wind from South

Today
High -- | Low -- °F
--% Chance of Precip.
Yesterday
High -- | Low -- °F
Precip. -- in
7:09 AM 8:14 PM
Waxing Crescent, 7% visible
Pressure 29.98 in
Visibility 10.0 miles
Clouds Clear
Dew Point 64 °F
Humidity 84%
Rainfall 0.00 in
Snow Depth Not available.
UV 0 out of 12
Pollen 10.40 out of 12
Air Quality Not available.
Flu Activity Not available.
METAR KPYX 281015Z AUTO 18009KT 10SM CLR 21/18 A2998 RMK AO2 T02050178

More Conditions Fewer Conditions

Pressure 29.98 in
Visibility 10.0 miles
Clouds Clear
Dew Point 64 °F
Humidity 84%
Rainfall 0.00 in
Snow Depth Not available.
UV 0 out of 12
Pollen 10.40 out of 12
Air Quality Not available.
Flu Activity Not available.
METAR KPYX 281015Z AUTO 18009KT 10SM CLR 21/18 A2998 RMK AO2 T02050178

More Conditions Fewer Conditions

10-Day Weather Forecast

Almanac

Astronomy

Aug. 28, 2014 Rise Set
Actual Time 7:09 AM CDT 8:14 PM CDT
Civil Twilight 6:42 AM CDT 8:41 PM CDT
Nautical Twilight 6:11 AM CDT 9:12 PM CDT
Astronomical Twilight 5:38 AM CDT 9:45 PM CDT
Moon 9:57 AM CDT 9:46 PM CDT
Length of Visible Light 13h 58m
Length of Day
13h 05m
Tomorrow will be 2m 11s shorter.
Waxing Crescent, 7% of the Moon is Illuminated
Today
Waxing Crescent
Sep 2
First Quarter
Sep 8
Full
Sep 15
Last Quarter
Sep 24
New

Today's Extremes

State Highs State Lows

Community

WunderPhotos

Upload Photos

1,747,921 photos uploaded!

Nearby

Snow Depth

Station Depth Elevation
No new snow has been reported.

Earthquake Activity

City Distance Mag. Time & Date
No recent earthquake activity has been reported nearby.
Minimum magnitude displayed is 2.5.

Coastal Water Temperatures

Place Temperature
No Stations Reporting

Nearby Weather Stations